createdAt,value
2017-09-09T00:00:15.426Z,0
2017-09-09T00:01:17.822Z,0
2017-09-09T00:02:20.211Z,0
2017-09-09T00:03:22.605Z,0
2017-09-09T00:04:25.004Z,0
2017-09-09T00:05:27.400Z,0
2017-09-09T00:06:29.789Z,0
2017-09-09T00:07:32.216Z,0
2017-09-09T00:08:34.583Z,0
2017-09-09T00:09:36.972Z,0
2017-09-09T00:10:39.363Z,0
2017-09-09T00:11:41.766Z,0
2017-09-09T00:12:44.494Z,0
2017-09-09T00:13:46.883Z,0
2017-09-09T00:14:49.276Z,0
2017-09-09T00:15:51.682Z,0
2017-09-09T00:16:54.074Z,0
2017-09-09T00:17:56.473Z,0
2017-09-09T00:18:58.861Z,0
2017-09-09T00:20:01.264Z,0
2017-09-09T00:21:04.010Z,0
2017-09-09T00:22:06.397Z,0
2017-09-09T00:23:08.796Z,0
2017-09-09T00:24:11.192Z,0
2017-09-09T00:25:13.919Z,0
2017-09-09T00:26:16.314Z,0
2017-09-09T00:27:18.709Z,0
2017-09-09T00:28:21.103Z,0
2017-09-09T00:29:23.501Z,0
2017-09-09T00:30:26.238Z,0
2017-09-09T00:31:28.632Z,0
2017-09-09T00:32:31.034Z,0
2017-09-09T00:33:33.424Z,0
2017-09-09T00:34:35.815Z,0
2017-09-09T00:35:38.220Z,0
2017-09-09T00:36:40.617Z,0
2017-09-09T00:37:43.019Z,0
2017-09-09T00:38:45.409Z,0
2017-09-09T00:39:47.804Z,0
2017-09-09T00:40:50.199Z,0
2017-09-09T00:41:52.590Z,0
2017-09-09T00:42:55.326Z,0
2017-09-09T00:43:57.713Z,0
2017-09-09T00:45:00.107Z,0
2017-09-09T00:46:02.506Z,0
2017-09-09T00:47:04.896Z,0
2017-09-09T00:48:07.294Z,0
2017-09-09T00:49:09.684Z,0
2017-09-09T00:50:12.427Z,0
2017-09-09T00:51:14.820Z,0
2017-09-09T00:52:17.217Z,0
2017-09-09T00:53:19.952Z,0
2017-09-09T00:54:22.352Z,0
2017-09-09T00:55:24.752Z,0
2017-09-09T00:56:27.490Z,0
2017-09-09T00:57:29.893Z,0
2017-09-09T00:58:32.283Z,0
2017-09-09T00:59:34.675Z,0
2017-09-09T01:00:37.070Z,0
2017-09-09T01:01:39.465Z,0
2017-09-09T01:02:41.856Z,0
2017-09-09T01:03:44.259Z,0
2017-09-09T01:04:46.987Z,0
2017-09-09T01:05:49.381Z,0
2017-09-09T01:06:51.774Z,0
2017-09-09T01:07:54.159Z,0
2017-09-09T01:08:56.559Z,0
2017-09-09T01:09:58.950Z,0
2017-09-09T01:11:01.350Z,0
2017-09-09T01:12:04.081Z,0
2017-09-09T01:13:06.475Z,0
2017-09-09T01:14:08.869Z,0
2017-09-09T01:15:11.269Z,0
2017-09-09T01:16:13.664Z,0
2017-09-09T01:17:16.063Z,0
2017-09-09T01:18:18.450Z,0
2017-09-09T01:19:20.855Z,0
2017-09-09T01:20:23.233Z,0
2017-09-09T01:21:25.971Z,0
2017-09-09T01:22:28.705Z,0
2017-09-09T01:23:31.442Z,0
2017-09-09T01:24:33.841Z,0
2017-09-09T01:25:36.227Z,0
2017-09-09T01:26:38.624Z,0
2017-09-09T01:27:41.028Z,0
2017-09-09T01:28:43.426Z,0
2017-09-09T01:29:45.816Z,0
2017-09-09T01:30:48.214Z,0
2017-09-09T01:31:50.602Z,0
2017-09-09T01:32:52.999Z,0
2017-09-09T01:33:55.390Z,0
2017-09-09T01:34:57.793Z,0
2017-09-09T01:36:00.524Z,0
2017-09-09T01:37:02.910Z,0
2017-09-09T01:38:05.313Z,0
2017-09-09T01:39:07.705Z,0
2017-09-09T01:40:10.138Z,0
2017-09-09T01:41:12.501Z,0
2017-09-09T01:42:14.888Z,0
2017-09-09T01:43:17.277Z,0
2017-09-09T01:44:19.686Z,0
2017-09-09T01:45:22.069Z,0
2017-09-09T01:46:24.463Z,0
2017-09-09T01:47:26.857Z,0
2017-09-09T01:48:29.248Z,0
2017-09-09T01:49:31.642Z,0
2017-09-09T01:50:34.039Z,0
2017-09-09T01:51:36.429Z,0
2017-09-09T01:52:38.822Z,0
2017-09-09T01:53:41.233Z,0
2017-09-09T01:54:43.622Z,0
2017-09-09T01:55:46.019Z,0
2017-09-09T01:56:48.413Z,0
2017-09-09T01:57:50.808Z,0
2017-09-09T01:58:53.204Z,0
2017-09-09T01:59:55.598Z,0
2017-09-09T02:00:57.980Z,0
2017-09-09T02:02:00.384Z,0
2017-09-09T02:03:02.775Z,0
2017-09-09T02:04:05.170Z,0
2017-09-09T02:05:07.560Z,0
2017-09-09T02:06:09.954Z,0
2017-09-09T02:07:12.346Z,0
2017-09-09T02:08:14.753Z,0
2017-09-09T02:09:17.148Z,0
2017-09-09T02:10:19.537Z,0
2017-09-09T02:11:21.925Z,0
2017-09-09T02:12:24.320Z,0
2017-09-09T02:13:26.714Z,0
2017-09-09T02:14:29.109Z,0
2017-09-09T02:15:31.496Z,0
2017-09-09T02:16:33.889Z,0
2017-09-09T02:17:36.287Z,0
2017-09-09T02:18:38.682Z,0
2017-09-09T02:19:41.082Z,0
2017-09-09T02:20:43.474Z,0
2017-09-09T02:21:46.554Z,0
2017-09-09T02:22:48.953Z,0
2017-09-09T02:23:51.346Z,0
2017-09-09T02:24:53.741Z,0
2017-09-09T02:25:56.134Z,0
2017-09-09T02:26:58.515Z,0
2017-09-09T02:28:00.913Z,0
2017-09-09T02:29:03.657Z,0
2017-09-09T02:30:06.046Z,0
2017-09-09T02:31:08.445Z,0
2017-09-09T02:32:10.838Z,0
2017-09-09T02:33:13.232Z,0
2017-09-09T02:34:15.623Z,0
2017-09-09T02:35:18.019Z,0
2017-09-09T02:36:20.406Z,0
2017-09-09T02:37:22.794Z,0
2017-09-09T02:38:25.197Z,0
2017-09-09T02:39:27.585Z,0
2017-09-09T02:40:29.981Z,0
2017-09-09T02:41:32.376Z,0
2017-09-09T02:42:34.773Z,0
2017-09-09T02:43:37.161Z,0
2017-09-09T02:44:39.562Z,0
2017-09-09T02:45:41.952Z,0
2017-09-09T02:46:44.348Z,0
2017-09-09T02:47:46.745Z,0
2017-09-09T02:48:49.136Z,0
2017-09-09T02:49:51.533Z,0
2017-09-09T02:50:53.936Z,0
2017-09-09T02:51:56.334Z,0
2017-09-09T02:52:58.721Z,0
2017-09-09T02:54:01.119Z,0
2017-09-09T02:55:03.514Z,0
2017-09-09T02:56:05.915Z,0
2017-09-09T02:57:08.308Z,0
2017-09-09T02:58:10.697Z,0
2017-09-09T02:59:13.088Z,0
2017-09-09T03:00:15.498Z,0
2017-09-09T03:01:17.890Z,0
2017-09-09T03:02:20.282Z,0
2017-09-09T03:03:23.033Z,0
2017-09-09T03:04:25.435Z,0
2017-09-09T03:05:27.817Z,0
2017-09-09T03:06:30.203Z,0
2017-09-09T03:07:32.611Z,0
2017-09-09T03:08:34.998Z,0
2017-09-09T03:09:37.397Z,0
2017-09-09T03:10:39.796Z,0
2017-09-09T03:11:42.187Z,0
2017-09-09T03:12:44.589Z,0
2017-09-09T03:13:46.986Z,0
2017-09-09T03:14:49.369Z,0
2017-09-09T03:15:51.760Z,0
2017-09-09T03:16:54.159Z,0
2017-09-09T03:17:56.550Z,0
2017-09-09T03:18:58.954Z,0
2017-09-09T03:20:01.343Z,0
2017-09-09T03:21:04.095Z,0
2017-09-09T03:22:06.496Z,0
2017-09-09T03:23:08.898Z,0
2017-09-09T03:24:11.291Z,0
2017-09-09T03:25:13.694Z,0
2017-09-09T03:26:16.412Z,0
2017-09-09T03:27:18.811Z,0
2017-09-09T03:28:21.206Z,0
2017-09-09T03:29:23.601Z,0
2017-09-09T03:30:25.990Z,0
2017-09-09T03:31:28.383Z,0
2017-09-09T03:32:30.785Z,0
2017-09-09T03:33:33.534Z,0
2017-09-09T03:34:35.932Z,0
2017-09-09T03:35:38.325Z,0
2017-09-09T03:36:40.722Z,0
2017-09-09T03:37:43.112Z,0
2017-09-09T03:38:45.513Z,0
2017-09-09T03:39:47.901Z,0
2017-09-09T03:40:50.298Z,0
2017-09-09T03:41:52.696Z,0
2017-09-09T03:42:55.091Z,0
2017-09-09T03:43:57.487Z,0
2017-09-09T03:44:59.887Z,0
2017-09-09T03:46:02.284Z,0
2017-09-09T03:47:04.683Z,0
2017-09-09T03:48:07.075Z,0
2017-09-09T03:49:09.467Z,0
2017-09-09T03:50:11.870Z,0
2017-09-09T03:51:14.255Z,0
2017-09-09T03:52:16.651Z,0
2017-09-09T03:53:19.046Z,0
2017-09-09T03:54:22.127Z,0
2017-09-09T03:55:24.518Z,0
2017-09-09T03:56:26.915Z,0
2017-09-09T03:57:29.300Z,0
2017-09-09T03:58:31.693Z,0
2017-09-09T03:59:34.090Z,0
2017-09-09T04:00:36.486Z,0
2017-09-09T04:01:38.884Z,0
2017-09-09T04:02:41.275Z,0
2017-09-09T04:03:44.009Z,0
2017-09-09T04:04:46.401Z,0
2017-09-09T04:05:48.793Z,0
2017-09-09T04:06:51.200Z,4
2017-09-09T04:07:53.593Z,4
2017-09-09T04:08:55.990Z,4
2017-09-09T04:09:58.383Z,4
2017-09-09T04:11:00.775Z,4
2017-09-09T04:12:03.180Z,4
2017-09-09T04:13:05.577Z,8
2017-09-09T04:14:07.967Z,4
2017-09-09T04:15:10.375Z,8
2017-09-09T04:16:12.765Z,8
2017-09-09T04:17:15.164Z,8
2017-09-09T04:18:17.560Z,8
2017-09-09T04:19:19.949Z,12
2017-09-09T04:20:22.342Z,16
2017-09-09T04:21:25.099Z,16
2017-09-09T04:22:27.488Z,20
2017-09-09T04:23:29.882Z,28
2017-09-09T04:24:32.285Z,36
2017-09-09T04:25:34.676Z,40
2017-09-09T04:26:37.074Z,44
2017-09-09T04:27:39.476Z,44
2017-09-09T04:28:42.207Z,56
2017-09-09T04:29:44.608Z,68
2017-09-09T04:30:47.370Z,76
2017-09-09T04:31:49.775Z,96
2017-09-09T04:32:52.165Z,108
2017-09-09T04:33:54.580Z,116
2017-09-09T04:34:56.979Z,124
2017-09-09T04:35:59.371Z,140
2017-09-09T04:37:01.767Z,156
2017-09-09T04:38:04.170Z,176
2017-09-09T04:39:06.567Z,200
2017-09-09T04:40:08.973Z,216
2017-09-09T04:41:11.370Z,228
2017-09-09T04:42:13.759Z,248
2017-09-09T04:43:16.159Z,264
2017-09-09T04:44:18.560Z,272
2017-09-09T04:45:20.949Z,280
2017-09-09T04:46:23.348Z,284
2017-09-09T04:47:25.741Z,284
2017-09-09T04:48:28.136Z,280
2017-09-09T04:49:30.533Z,296
2017-09-09T04:50:32.929Z,328
2017-09-09T04:51:35.318Z,348
2017-09-09T04:52:37.718Z,360
2017-09-09T04:53:40.105Z,368
2017-09-09T04:54:42.513Z,392
2017-09-09T04:55:44.908Z,424
2017-09-09T04:56:47.297Z,460
2017-09-09T04:57:49.699Z,492
2017-09-09T04:58:52.093Z,532
2017-09-09T04:59:54.489Z,556
2017-09-09T05:00:57.220Z,580
2017-09-09T05:01:59.609Z,620
2017-09-09T05:03:02.006Z,660
2017-09-09T05:04:04.406Z,708
2017-09-09T05:05:07.149Z,752
2017-09-09T05:06:09.557Z,768
2017-09-09T05:07:11.950Z,776
2017-09-09T05:08:14.343Z,804
2017-09-09T05:09:16.743Z,836
2017-09-09T05:10:19.139Z,840
2017-09-09T05:11:21.538Z,848
2017-09-09T05:12:23.945Z,828
2017-09-09T05:13:26.673Z,780
2017-09-09T05:14:29.066Z,788
2017-09-09T05:15:31.471Z,856
2017-09-09T05:16:33.856Z,896
2017-09-09T05:17:36.247Z,956
2017-09-09T05:18:38.645Z,1020
2017-09-09T05:19:41.035Z,1152
2017-09-09T05:20:43.434Z,1344
2017-09-09T05:21:45.827Z,1540
2017-09-09T05:22:48.225Z,1756
2017-09-09T05:23:50.620Z,1936
2017-09-09T05:24:53.019Z,2012
2017-09-09T05:25:55.418Z,2088
2017-09-09T05:26:57.816Z,2168
2017-09-09T05:28:00.204Z,2200
2017-09-09T05:29:02.601Z,2160
2017-09-09T05:30:05.000Z,2104
2017-09-09T05:31:07.394Z,2072
2017-09-09T05:32:09.791Z,2092
2017-09-09T05:33:12.196Z,2140
2017-09-09T05:34:14.588Z,2132
2017-09-09T05:35:16.988Z,2120
2017-09-09T05:36:19.380Z,2120
2017-09-09T05:37:21.785Z,2044
2017-09-09T05:38:24.179Z,1996
2017-09-09T05:39:26.572Z,1972
2017-09-09T05:40:28.968Z,1948
2017-09-09T05:41:31.703Z,1944
2017-09-09T05:42:34.446Z,2016
2017-09-09T05:43:36.839Z,2116
2017-09-09T05:44:39.237Z,2224
2017-09-09T05:45:41.630Z,2344
2017-09-09T05:46:44.021Z,2368
2017-09-09T05:47:46.419Z,2372
2017-09-09T05:48:48.815Z,2464
2017-09-09T05:49:51.212Z,2628
2017-09-09T05:50:53.610Z,2720
2017-09-09T05:51:56.009Z,2840
2017-09-09T05:52:58.401Z,2968
2017-09-09T05:54:00.801Z,3116
2017-09-09T05:55:03.193Z,3324
2017-09-09T05:56:05.586Z,3592
2017-09-09T05:57:07.984Z,3788
2017-09-09T05:58:10.374Z,3996
2017-09-09T05:59:13.108Z,4172
2017-09-09T06:00:15.508Z,4384
2017-09-09T06:01:17.903Z,4580
2017-09-09T06:02:20.295Z,4752
2017-09-09T06:03:22.698Z,4900
2017-09-09T06:04:25.088Z,4956
2017-09-09T06:05:27.485Z,4916
2017-09-09T06:06:29.875Z,4756
2017-09-09T06:07:32.270Z,4472
2017-09-09T06:08:34.663Z,4184
2017-09-09T06:09:37.402Z,3984
2017-09-09T06:10:39.791Z,3972
2017-09-09T06:11:42.189Z,3796
2017-09-09T06:12:44.587Z,3872
2017-09-09T06:13:46.976Z,4044
2017-09-09T06:14:49.373Z,4168
2017-09-09T06:15:51.769Z,4104
2017-09-09T06:16:54.161Z,3960
2017-09-09T06:17:56.566Z,3768
2017-09-09T06:18:58.959Z,3528
2017-09-09T06:20:01.360Z,3540
2017-09-09T06:21:03.761Z,3560
2017-09-09T06:22:06.494Z,3508
2017-09-09T06:23:08.888Z,3496
2017-09-09T06:24:11.282Z,3436
2017-09-09T06:25:13.672Z,3728
2017-09-09T06:26:16.071Z,3904
2017-09-09T06:27:18.464Z,3828
2017-09-09T06:28:20.870Z,3808
2017-09-09T06:29:23.268Z,3896
2017-09-09T06:30:25.658Z,4152
2017-09-09T06:31:28.054Z,4284
2017-09-09T06:32:30.449Z,4168
2017-09-09T06:33:32.849Z,4236
2017-09-09T06:34:35.246Z,4204
2017-09-09T06:35:37.978Z,4232
2017-09-09T06:36:40.379Z,4364
2017-09-09T06:37:42.777Z,4468
2017-09-09T06:38:45.169Z,4668
2017-09-09T06:39:47.568Z,4756
2017-09-09T06:40:49.963Z,4860
2017-09-09T06:41:52.368Z,4756
2017-09-09T06:42:54.765Z,4372
2017-09-09T06:43:57.157Z,4092
2017-09-09T06:44:59.551Z,3976
2017-09-09T06:46:01.961Z,4232
2017-09-09T06:47:04.352Z,4784
2017-09-09T06:48:06.752Z,5244
2017-09-09T06:49:09.149Z,5264
2017-09-09T06:50:11.543Z,5256
2017-09-09T06:51:13.936Z,5164
2017-09-09T06:52:16.342Z,4872
2017-09-09T06:53:18.726Z,5008
2017-09-09T06:54:21.124Z,5580
2017-09-09T06:55:23.517Z,5992
2017-09-09T06:56:25.918Z,6244
2017-09-09T06:57:28.319Z,6256
2017-09-09T06:58:30.711Z,6232
2017-09-09T06:59:33.104Z,5944
2017-09-09T07:00:35.498Z,5944
2017-09-09T07:01:37.890Z,6152
2017-09-09T07:02:40.290Z,5928
2017-09-09T07:03:42.692Z,5528
2017-09-09T07:04:45.089Z,5044
2017-09-09T07:05:47.827Z,4924
2017-09-09T07:06:50.225Z,5184
2017-09-09T07:07:52.620Z,6204
2017-09-09T07:08:55.026Z,6432
2017-09-09T07:09:57.412Z,6724
2017-09-09T07:10:59.804Z,6932
2017-09-09T07:12:02.557Z,7268
2017-09-09T07:13:04.948Z,7072
2017-09-09T07:14:07.349Z,6712
2017-09-09T07:15:09.743Z,6512
2017-09-09T07:16:12.134Z,6796
2017-09-09T07:17:14.884Z,7040
2017-09-09T07:18:17.619Z,6836
2017-09-09T07:19:20.016Z,6912
2017-09-09T07:20:22.416Z,7424
2017-09-09T07:21:24.811Z,8088
2017-09-09T07:22:27.210Z,8548
2017-09-09T07:23:29.616Z,8784
2017-09-09T07:24:32.009Z,8704
2017-09-09T07:25:34.396Z,7972
2017-09-09T07:26:36.800Z,8252
2017-09-09T07:27:39.194Z,9156
2017-09-09T07:28:41.582Z,9296
2017-09-09T07:29:43.982Z,8288
2017-09-09T07:30:46.714Z,7856
2017-09-09T07:31:49.106Z,8104
2017-09-09T07:32:51.502Z,7988
2017-09-09T07:33:53.907Z,7844
2017-09-09T07:34:56.302Z,7936
2017-09-09T07:35:58.696Z,7964
2017-09-09T07:37:01.122Z,8264
2017-09-09T07:38:03.503Z,7028
2017-09-09T07:39:05.903Z,5120
2017-09-09T07:40:08.300Z,4904
2017-09-09T07:41:10.693Z,4252
2017-09-09T07:42:13.086Z,5172
2017-09-09T07:43:15.492Z,5608
2017-09-09T07:44:17.885Z,6424
2017-09-09T07:45:20.277Z,6328
2017-09-09T07:46:22.674Z,5812
2017-09-09T07:47:25.215Z,5108
2017-09-09T07:48:27.620Z,5148
2017-09-09T07:49:30.022Z,4464
2017-09-09T07:50:32.746Z,4540
2017-09-09T07:51:35.151Z,5684
2017-09-09T07:52:37.552Z,5680
2017-09-09T07:53:39.946Z,5880
2017-09-09T07:54:42.347Z,5604
2017-09-09T07:55:44.738Z,5256
2017-09-09T07:56:47.469Z,3312
2017-09-09T07:57:49.873Z,2796
2017-09-09T07:58:52.260Z,3236
2017-09-09T07:59:54.662Z,3324
2017-09-09T08:00:57.053Z,5108
2017-09-09T08:01:59.452Z,5920
2017-09-09T08:03:01.856Z,6168
2017-09-09T08:04:04.255Z,5988
2017-09-09T08:05:06.643Z,7148
2017-09-09T08:06:09.043Z,6672
2017-09-09T08:07:11.434Z,6732
2017-09-09T08:08:13.827Z,6548
2017-09-09T08:09:16.223Z,6112
2017-09-09T08:10:18.626Z,5604
2017-09-09T08:11:21.359Z,5596
2017-09-09T08:12:23.754Z,4636
2017-09-09T08:13:26.150Z,4748
2017-09-09T08:14:28.545Z,4408
2017-09-09T08:15:31.282Z,4144
2017-09-09T08:16:33.670Z,5372
2017-09-09T08:17:36.073Z,6080
2017-09-09T08:18:38.471Z,7080
2017-09-09T08:19:40.869Z,6828
2017-09-09T08:20:43.256Z,6972
2017-09-09T08:21:45.685Z,6920
2017-09-09T08:22:48.049Z,6192
2017-09-09T08:23:50.457Z,5544
2017-09-09T08:24:52.851Z,5240
2017-09-09T08:25:55.239Z,4184
2017-09-09T08:26:57.639Z,4400
2017-09-09T08:28:00.044Z,5632
2017-09-09T08:29:03.473Z,7552
2017-09-09T08:30:05.865Z,7588
2017-09-09T08:31:08.613Z,6108
2017-09-09T08:32:11.009Z,6648
2017-09-09T08:33:13.404Z,6528
2017-09-09T08:34:15.802Z,6136
2017-09-09T08:35:18.204Z,5144
2017-09-09T08:36:20.600Z,4120
2017-09-09T08:37:23.676Z,3388
2017-09-09T08:38:26.061Z,3204
2017-09-09T08:39:28.457Z,2896
2017-09-09T08:40:30.857Z,2924
2017-09-09T08:41:33.253Z,3216
2017-09-09T08:42:35.645Z,3056
2017-09-09T08:43:38.047Z,3400
2017-09-09T08:44:41.114Z,3960
2017-09-09T08:45:43.515Z,4312
2017-09-09T08:46:45.910Z,4480
2017-09-09T08:47:48.307Z,5064
2017-09-09T08:48:50.707Z,5864
2017-09-09T08:49:53.100Z,5696
2017-09-09T08:50:55.493Z,4984
2017-09-09T08:51:57.892Z,4744
2017-09-09T08:53:00.282Z,4944
2017-09-09T08:54:02.684Z,4828
2017-09-09T08:55:05.076Z,4800
2017-09-09T08:56:07.472Z,4720
2017-09-09T08:57:09.874Z,6588
2017-09-09T08:58:12.277Z,5708
2017-09-09T08:59:14.668Z,5344
2017-09-09T09:00:17.056Z,5348
2017-09-09T09:01:19.456Z,5544
2017-09-09T09:02:21.852Z,5540
2017-09-09T09:03:24.255Z,4956
2017-09-09T09:04:26.988Z,4592
2017-09-09T09:05:29.506Z,5528
2017-09-09T09:06:32.044Z,4960
2017-09-09T09:07:34.606Z,4376
2017-09-09T09:08:36.999Z,5356
2017-09-09T09:09:39.394Z,5696
2017-09-09T09:10:41.792Z,5320
2017-09-09T09:11:44.532Z,5444
2017-09-09T09:12:46.922Z,6584
2017-09-09T09:13:49.322Z,6504
2017-09-09T09:14:51.715Z,7580
2017-09-09T09:15:54.130Z,7004
2017-09-09T09:16:56.551Z,7852
2017-09-09T09:17:58.947Z,8900
2017-09-09T09:19:01.337Z,7548
2017-09-09T09:20:04.078Z,7156
2017-09-09T09:21:06.473Z,8056
2017-09-09T09:22:08.868Z,7784
2017-09-09T09:23:11.277Z,6824
2017-09-09T09:24:13.697Z,7236
2017-09-09T09:25:16.090Z,6552
2017-09-09T09:26:18.501Z,6196
2017-09-09T09:27:20.896Z,6376
2017-09-09T09:28:23.285Z,6340
2017-09-09T09:29:25.683Z,6216
2017-09-09T09:30:28.086Z,7204
2017-09-09T09:31:30.479Z,6828
2017-09-09T09:32:33.771Z,5524
2017-09-09T09:33:36.758Z,5060
2017-09-09T09:34:39.164Z,5344
2017-09-09T09:35:42.692Z,5880
2017-09-09T09:36:45.083Z,6380
2017-09-09T09:37:47.479Z,7104
2017-09-09T09:38:50.980Z,6472
2017-09-09T09:39:54.621Z,6196
2017-09-09T09:40:57.360Z,5704
2017-09-09T09:42:00.537Z,6064
2017-09-09T09:43:03.936Z,6404
2017-09-09T09:44:07.451Z,6280
2017-09-09T09:45:09.866Z,6872
2017-09-09T09:46:12.596Z,6764
2017-09-09T09:47:14.983Z,7524
2017-09-09T09:48:17.376Z,7684
2017-09-09T09:49:20.112Z,5644
2017-09-09T09:50:22.848Z,5208
2017-09-09T09:51:25.243Z,6524
2017-09-09T09:52:27.641Z,7336
2017-09-09T09:53:30.036Z,6524
2017-09-09T09:54:32.437Z,6716
2017-09-09T09:55:34.839Z,7608
2017-09-09T09:56:37.555Z,6444
2017-09-09T09:57:39.957Z,6288
2017-09-09T09:58:42.349Z,7064
2017-09-09T09:59:44.745Z,6800
2017-09-09T10:00:47.141Z,7552
2017-09-09T10:01:49.534Z,7368
2017-09-09T10:02:51.933Z,6852
2017-09-09T10:03:54.325Z,5340
2017-09-09T10:04:56.722Z,6000
2017-09-09T10:05:59.120Z,6300
2017-09-09T10:07:01.511Z,6648
2017-09-09T10:08:03.910Z,7548
2017-09-09T10:09:06.306Z,7840
2017-09-09T10:10:08.706Z,7992
2017-09-09T10:11:11.098Z,6144
2017-09-09T10:12:13.506Z,6608
2017-09-09T10:13:16.226Z,6772
2017-09-09T10:14:18.621Z,4836
2017-09-09T10:15:21.019Z,7456
2017-09-09T10:16:23.418Z,9756
2017-09-09T10:17:25.818Z,7408
2017-09-09T10:18:28.208Z,7160
2017-09-09T10:19:30.604Z,9636
2017-09-09T10:20:33.009Z,9600
2017-09-09T10:21:35.406Z,8548
2017-09-09T10:22:37.795Z,7060
2017-09-09T10:23:40.188Z,9836
2017-09-09T10:24:42.582Z,9116
2017-09-09T10:25:44.975Z,7836
2017-09-09T10:26:47.367Z,6940
2017-09-09T10:27:49.770Z,7204
2017-09-09T10:28:52.501Z,7768
2017-09-09T10:29:54.891Z,7160
2017-09-09T10:30:57.284Z,7332
2017-09-09T10:31:59.679Z,6724
2017-09-09T10:33:02.068Z,6392
2017-09-09T10:34:04.467Z,8148
2017-09-09T10:35:06.857Z,10580
2017-09-09T10:36:09.249Z,8484
2017-09-09T10:37:11.657Z,7308
2017-09-09T10:38:14.042Z,7252
2017-09-09T10:39:16.443Z,7588
2017-09-09T10:40:18.846Z,6560
2017-09-09T10:41:21.239Z,7992
2017-09-09T10:42:23.641Z,8960
2017-09-09T10:43:26.037Z,8964
2017-09-09T10:44:28.426Z,9768
2017-09-09T10:45:30.826Z,8860
2017-09-09T10:46:33.327Z,10712
2017-09-09T10:47:35.725Z,14460
2017-09-09T10:48:38.456Z,11860
2017-09-09T10:49:40.849Z,12052
2017-09-09T10:50:43.246Z,14744
2017-09-09T10:51:45.647Z,20416
2017-09-09T10:52:48.038Z,23616
2017-09-09T10:53:50.429Z,29600
2017-09-09T10:54:52.818Z,27648
2017-09-09T10:55:55.217Z,22688
2017-09-09T10:56:57.607Z,16588
2017-09-09T10:57:59.999Z,15140
2017-09-09T10:59:02.398Z,12224
2017-09-09T11:00:04.803Z,13612
2017-09-09T11:01:07.190Z,15256
2017-09-09T11:02:09.587Z,17436
2017-09-09T11:03:11.996Z,16996
2017-09-09T11:04:14.389Z,17704
2017-09-09T11:05:16.790Z,15940
2017-09-09T11:06:19.178Z,13192
2017-09-09T11:07:21.571Z,14140
2017-09-09T11:08:23.974Z,14112
2017-09-09T11:09:26.711Z,18724
2017-09-09T11:10:29.093Z,22400
2017-09-09T11:11:31.500Z,14916
2017-09-09T11:12:33.887Z,16540
2017-09-09T11:13:36.289Z,13616
2017-09-09T11:14:39.043Z,13028
2017-09-09T11:15:41.441Z,11992
2017-09-09T11:16:43.834Z,13924
2017-09-09T11:17:46.235Z,17848
2017-09-09T11:18:48.622Z,15472
2017-09-09T11:19:51.018Z,12276
2017-09-09T11:20:53.418Z,10080
2017-09-09T11:21:55.810Z,9352
2017-09-09T11:22:58.207Z,11444
2017-09-09T11:24:00.603Z,12376
2017-09-09T11:25:02.995Z,9780
2017-09-09T11:26:05.390Z,7840
2017-09-09T11:27:07.784Z,8908
2017-09-09T11:28:10.185Z,12808
2017-09-09T11:29:12.573Z,14972
2017-09-09T11:30:14.966Z,9936
2017-09-09T11:31:17.366Z,8456
2017-09-09T11:32:19.759Z,10528
2017-09-09T11:33:22.496Z,16184
2017-09-09T11:34:24.890Z,25856
2017-09-09T11:35:27.280Z,20384
2017-09-09T11:36:30.020Z,20608
2017-09-09T11:37:32.415Z,15276
2017-09-09T11:38:34.813Z,16248
2017-09-09T11:39:37.209Z,13560
2017-09-09T11:40:39.610Z,16056
2017-09-09T11:41:42.002Z,16056
2017-09-09T11:42:44.403Z,13612
2017-09-09T11:43:46.792Z,10700
2017-09-09T11:44:49.176Z,7092
2017-09-09T11:45:51.585Z,7084
2017-09-09T11:46:53.976Z,7644
2017-09-09T11:47:56.371Z,8136
2017-09-09T11:48:58.765Z,9720
2017-09-09T11:50:01.160Z,7424
2017-09-09T11:51:03.554Z,10556
2017-09-09T11:52:05.954Z,14344
2017-09-09T11:53:08.345Z,17140
2017-09-09T11:54:10.743Z,20896
2017-09-09T11:55:13.508Z,27040
2017-09-09T11:56:16.234Z,36960
2017-09-09T11:57:18.637Z,36512
2017-09-09T11:58:21.044Z,32096
2017-09-09T11:59:23.778Z,29920
2017-09-09T12:00:26.164Z,36352
2017-09-09T12:01:28.561Z,30208
2017-09-09T12:02:30.963Z,34592
2017-09-09T12:03:33.353Z,50592
2017-09-09T12:04:35.752Z,68000
2017-09-09T12:05:38.148Z,48096
2017-09-09T12:06:40.547Z,64320
2017-09-09T12:07:42.951Z,64896
2017-09-09T12:08:45.350Z,32192
2017-09-09T12:09:47.735Z,35680
2017-09-09T12:10:50.135Z,27584
2017-09-09T12:11:52.528Z,26176
2017-09-09T12:12:54.933Z,30752
2017-09-09T12:13:57.335Z,34304
2017-09-09T12:14:59.722Z,26944
2017-09-09T12:16:02.455Z,44992
2017-09-09T12:17:04.865Z,37920
2017-09-09T12:18:07.256Z,24768
2017-09-09T12:19:09.665Z,17440
2017-09-09T12:20:12.404Z,16332
2017-09-09T12:21:14.795Z,16912
2017-09-09T12:22:17.199Z,35424
2017-09-09T12:23:19.599Z,19904
2017-09-09T12:24:21.987Z,18316
2017-09-09T12:25:24.391Z,19648
2017-09-09T12:26:26.792Z,19456
2017-09-09T12:27:29.192Z,15044
2017-09-09T12:28:31.587Z,13156
2017-09-09T12:29:33.993Z,21312
2017-09-09T12:30:36.392Z,18008
2017-09-09T12:31:38.788Z,18592
2017-09-09T12:32:41.187Z,39200
2017-09-09T12:33:43.591Z,85056
2017-09-09T12:34:45.983Z,22848
2017-09-09T12:35:48.386Z,23104
2017-09-09T12:36:51.122Z,25440
2017-09-09T12:37:53.524Z,25696
2017-09-09T12:38:55.923Z,28832
2017-09-09T12:39:58.324Z,27360
2017-09-09T12:41:00.720Z,35392
2017-09-09T12:42:03.127Z,35968
2017-09-09T12:43:05.525Z,28320
2017-09-09T12:44:07.932Z,33760
2017-09-09T12:45:10.327Z,135264
2017-09-09T12:46:12.724Z,35040
2017-09-09T12:47:15.121Z,105216
2017-09-09T12:48:17.525Z,37088
2017-09-09T12:49:19.961Z,130848
2017-09-09T12:50:22.332Z,134720
2017-09-09T12:51:24.732Z,71520
2017-09-09T12:52:27.130Z,53248
2017-09-09T12:53:29.532Z,33536
2017-09-09T12:54:31.946Z,35200
2017-09-09T12:55:34.340Z,50528
2017-09-09T12:56:36.743Z,23264
2017-09-09T12:57:39.146Z,14260
2017-09-09T12:58:41.546Z,11992
2017-09-09T12:59:43.945Z,10780
2017-09-09T13:00:46.349Z,8960
2017-09-09T13:01:48.753Z,9228
2017-09-09T13:02:51.160Z,7996
2017-09-09T13:03:53.898Z,7992
2017-09-09T13:04:56.304Z,8788
2017-09-09T13:05:59.036Z,10128
2017-09-09T13:07:01.445Z,12292
2017-09-09T13:08:03.850Z,18604
2017-09-09T13:09:06.587Z,33472
2017-09-09T13:10:08.985Z,104160
2017-09-09T13:11:11.408Z,95968
2017-09-09T13:12:13.821Z,99232
2017-09-09T13:13:16.223Z,110400
2017-09-09T13:14:18.950Z,25504
2017-09-09T13:15:21.357Z,42272
2017-09-09T13:16:23.754Z,117472
2017-09-09T13:17:26.161Z,58112
2017-09-09T13:18:28.564Z,95840
2017-09-09T13:19:30.965Z,57248
2017-09-09T13:20:33.373Z,23520
2017-09-09T13:21:35.780Z,26944
2017-09-09T13:22:38.180Z,28736
2017-09-09T13:23:40.584Z,33760
2017-09-09T13:24:42.980Z,32576
2017-09-09T13:25:45.389Z,28096
2017-09-09T13:26:47.791Z,28448
2017-09-09T13:27:50.193Z,26400
2017-09-09T13:28:52.596Z,20768
2017-09-09T13:29:55.003Z,17728
2017-09-09T13:30:57.414Z,14092
2017-09-09T13:31:59.824Z,9784
2017-09-09T13:33:02.213Z,8528
2017-09-09T13:34:04.616Z,10636
2017-09-09T13:35:07.029Z,15792
2017-09-09T13:36:09.767Z,18264
2017-09-09T13:37:12.173Z,20448
2017-09-09T13:38:14.565Z,19136
2017-09-09T13:39:16.961Z,17248
2017-09-09T13:40:19.378Z,15528
2017-09-09T13:41:21.778Z,16644
2017-09-09T13:42:24.176Z,16424
2017-09-09T13:43:26.580Z,14444
2017-09-09T13:44:28.980Z,13680
2017-09-09T13:45:31.386Z,22720
2017-09-09T13:46:33.798Z,24992
2017-09-09T13:47:36.254Z,25600
2017-09-09T13:48:38.655Z,36064
2017-09-09T13:49:41.407Z,79456
2017-09-09T13:50:43.812Z,72512
2017-09-09T13:51:46.213Z,67168
2017-09-09T13:52:48.614Z,56416
2017-09-09T13:53:51.014Z,64160
2017-09-09T13:54:53.687Z,44992
2017-09-09T13:55:56.095Z,49216
2017-09-09T13:56:58.494Z,53824
2017-09-09T13:58:00.896Z,75648
2017-09-09T13:59:03.315Z,16968
2017-09-09T14:00:05.717Z,45504
2017-09-09T14:01:08.121Z,76480
2017-09-09T14:02:10.543Z,62944
2017-09-09T14:03:12.949Z,71872
2017-09-09T14:04:15.363Z,77664
2017-09-09T14:05:17.770Z,43584
2017-09-09T14:06:20.165Z,35424
2017-09-09T14:07:22.925Z,41760
2017-09-09T14:08:25.344Z,22688
2017-09-09T14:09:27.743Z,69248
2017-09-09T14:10:30.146Z,62144
2017-09-09T14:11:32.557Z,31264
2017-09-09T14:12:34.962Z,22816